sensor_id;sensor_type;location;lat;lon;timestamp;temperature;humidity
19435;DHT22;9853;50.848;4.108;2022-07-29T00:01:08;19.60;99.90
19435;DHT22;9853;50.848;4.108;2022-07-29T00:03:09;19.50;99.90
19435;DHT22;9853;50.848;4.108;2022-07-29T00:05:09;19.60;99.90
19435;DHT22;9853;50.848;4.108;2022-07-29T00:07:13;19.80;99.90
19435;DHT22;9853;50.848;4.108;2022-07-29T00:09:14;19.90;99.90
19435;DHT22;9853;50.848;4.108;2022-07-29T00:11:15;19.70;99.90
19435;DHT22;9853;50.848;4.108;2022-07-29T00:13:15;19.80;99.90
19435;DHT22;9853;50.848;4.108;2022-07-29T00:15:16;19.70;99.90
19435;DHT22;9853;50.848;4.108;2022-07-29T00:17:17;19.60;99.90
19435;DHT22;9853;50.848;4.108;2022-07-29T00:19:17;19.40;99.90
19435;DHT22;9853;50.848;4.108;2022-07-29T00:21:18;19.20;99.90
19435;DHT22;9853;50.848;4.108;2022-07-29T00:23:19;19.00;99.90
19435;DHT22;9853;50.848;4.108;2022-07-29T00:25:20;19.10;99.90
19435;DHT22;9853;50.848;4.108;2022-07-29T00:27:20;19.00;99.90
19435;DHT22;9853;50.848;4.108;2022-07-29T00:29:22;19.20;99.90
19435;DHT22;9853;50.848;4.108;2022-07-29T00:31:23;19.30;99.90
19435;DHT22;9853;50.848;4.108;2022-07-29T00:33:23;18.90;99.90
19435;DHT22;9853;50.848;4.108;2022-07-29T00:35:24;18.90;99.90
19435;DHT22;9853;50.848;4.108;2022-07-29T00:37:44;18.70;99.90
19435;DHT22;9853;50.848;4.108;2022-07-29T00:39:44;18.90;99.90
19435;DHT22;9853;50.848;4.108;2022-07-29T00:41:45;18.80;99.90
19435;DHT22;9853;50.848;4.108;2022-07-29T00:43:46;18.80;99.90
19435;DHT22;9853;50.848;4.108;2022-07-29T00:45:47;18.70;99.90
19435;DHT22;9853;50.848;4.108;2022-07-29T00:47:48;18.90;99.90
19435;DHT22;9853;50.848;4.108;2022-07-29T00:49:49;18.90;99.90
19435;DHT22;9853;50.848;4.108;2022-07-29T00:51:50;18.90;99.90
19435;DHT22;9853;50.848;4.108;2022-07-29T00:53:51;18.80;99.90
19435;DHT22;9853;50.848;4.108;2022-07-29T00:55:55;18.80;99.90
19435;DHT22;9853;50.848;4.108;2022-07-29T00:57:58;18.70;99.90
19435;DHT22;9853;50.848;4.108;2022-07-29T00:59:59;18.70;99.90
19435;DHT22;9853;50.848;4.108;2022-07-29T01:01:59;18.60;99.90
19435;DHT22;9853;50.848;4.108;2022-07-29T01:04:00;18.90;99.90
19435;DHT22;9853;50.848;4.108;2022-07-29T01:06:02;18.70;99.90
19435;DHT22;9853;50.848;4.108;2022-07-29T01:08:03;18.70;99.90
19435;DHT22;9853;50.848;4.108;2022-07-29T01:10:05;18.50;99.90
19435;DHT22;9853;50.848;4.108;2022-07-29T01:12:07;18.30;99.90
19435;DHT22;9853;50.848;4.108;2022-07-29T01:14:08;18.20;99.90
19435;DHT22;9853;50.848;4.108;2022-07-29T01:16:22;18.10;99.90
19435;DHT22;9853;50.848;4.108;2022-07-29T01:18:39;18.10;99.90
19435;DHT22;9853;50.848;4.108;2022-07-29T01:23:11;17.90;99.90
19435;DHT22;9853;50.848;4.108;2022-07-29T01:27:41;18.00;99.90
19435;DHT22;9853;50.848;4.108;2022-07-29T01:29:49;17.80;99.90
19435;DHT22;9853;50.848;4.108;2022-07-29T01:32:15;17.90;99.90
19435;DHT22;9853;50.848;4.108;2022-07-29T01:34:23;18.00;99.90
19435;DHT22;9853;50.848;4.108;2022-07-29T01:36:47;18.00;99.90
19435;DHT22;9853;50.848;4.108;2022-07-29T01:39:05;18.00;99.90
19435;DHT22;9853;50.848;4.108;2022-07-29T01:41:09;18.10;99.90
19435;DHT22;9853;50.848;4.108;2022-07-29T01:43:16;18.00;99.90
19435;DHT22;9853;50.848;4.108;2022-07-29T01:46:11;17.90;99.90
19435;DHT22;9853;50.848;4.108;2022-07-29T01:48:12;18.00;99.90
19435;DHT22;9853;50.848;4.108;2022-07-29T01:50:16;18.00;99.90
19435;DHT22;9853;50.848;4.108;2022-07-29T01:52:26;18.00;99.90
19435;DHT22;9853;50.848;4.108;2022-07-29T01:54:34;18.00;99.90
19435;DHT22;9853;50.848;4.108;2022-07-29T01:56:38;17.70;99.90
19435;DHT22;9853;50.848;4.108;2022-07-29T01:58:41;17.70;99.90
19435;DHT22;9853;50.848;4.108;2022-07-29T02:00:44;17.80;99.90
19435;DHT22;9853;50.848;4.108;2022-07-29T02:02:47;17.60;99.90
19435;DHT22;9853;50.848;4.108;2022-07-29T02:04:49;17.40;99.90
19435;DHT22;9853;50.848;4.108;2022-07-29T02:06:53;17.20;99.90
19435;DHT22;9853;50.848;4.108;2022-07-29T02:08:56;16.90;99.90
19435;DHT22;9853;50.848;4.108;2022-07-29T02:11:00;16.90;99.90
19435;DHT22;9853;50.848;4.108;2022-07-29T02:13:02;16.80;99.90
19435;DHT22;9853;50.848;4.108;2022-07-29T02:15:04;16.90;99.90
19435;DHT22;9853;50.848;4.108;2022-07-29T02:17:06;17.20;99.90
19435;DHT22;9853;50.848;4.108;2022-07-29T02:19:08;17.20;99.90
19435;DHT22;9853;50.848;4.108;2022-07-29T02:21:10;17.20;99.90
19435;DHT22;9853;50.848;4.108;2022-07-29T02:23:18;17.10;99.90
19435;DHT22;9853;50.848;4.108;2022-07-29T02:25:21;17.40;99.90
19435;DHT22;9853;50.848;4.108;2022-07-29T02:27:23;17.40;99.90
19435;DHT22;9853;50.848;4.108;2022-07-29T02:29:26;17.60;99.90
19435;DHT22;9853;50.848;4.108;2022-07-29T02:31:33;17.50;99.90
19435;DHT22;9853;50.848;4.108;2022-07-29T02:33:35;17.50;99.90
19435;DHT22;9853;50.848;4.108;2022-07-29T02:35:38;17.30;99.90
19435;DHT22;9853;50.848;4.108;2022-07-29T02:37:41;17.30;99.90
19435;DHT22;9853;50.848;4.108;2022-07-29T02:39:44;17.20;99.90
19435;DHT22;9853;50.848;4.108;2022-07-29T02:41:52;17.20;99.90
19435;DHT22;9853;50.848;4.108;2022-07-29T02:44:03;17.40;99.90
19435;DHT22;9853;50.848;4.108;2022-07-29T02:46:08;17.40;99.90
19435;DHT22;9853;50.848;4.108;2022-07-29T02:48:15;17.40;99.90
19435;DHT22;9853;50.848;4.108;2022-07-29T02:50:37;17.50;99.90
19435;DHT22;9853;50.848;4.108;2022-07-29T02:53:15;17.50;99.90
19435;DHT22;9853;50.848;4.108;2022-07-29T02:55:44;17.40;99.90
19435;DHT22;9853;50.848;4.108;2022-07-29T02:57:59;17.30;99.90
19435;DHT22;9853;50.848;4.108;2022-07-29T03:00:05;17.40;99.90
19435;DHT22;9853;50.848;4.108;2022-07-29T03:02:07;17.50;99.90
19435;DHT22;9853;50.848;4.108;2022-07-29T03:04:09;17.60;99.90
19435;DHT22;9853;50.848;4.108;2022-07-29T03:06:13;17.50;99.90
19435;DHT22;9853;50.848;4.108;2022-07-29T03:08:15;17.60;99.90
19435;DHT22;9853;50.848;4.108;2022-07-29T03:10:16;17.50;99.90
19435;DHT22;9853;50.848;4.108;2022-07-29T03:12:18;17.20;99.90
19435;DHT22;9853;50.848;4.108;2022-07-29T03:14:20;17.20;99.90
19435;DHT22;9853;50.848;4.108;2022-07-29T03:16:21;17.20;99.90
19435;DHT22;9853;50.848;4.108;2022-07-29T03:18:24;17.20;99.90
19435;DHT22;9853;50.848;4.108;2022-07-29T03:20:26;17.20;99.90
19435;DHT22;9853;50.848;4.108;2022-07-29T03:22:27;17.10;99.90
19435;DHT22;9853;50.848;4.108;2022-07-29T03:24:33;17.10;99.90
19435;DHT22;9853;50.848;4.108;2022-07-29T03:26:34;16.80;99.90
19435;DHT22;9853;50.848;4.108;2022-07-29T03:28:35;16.70;99.90
19435;DHT22;9853;50.848;4.108;2022-07-29T03:30:36;16.60;99.90
19435;DHT22;9853;50.848;4.108;2022-07-29T03:32:37;16.70;99.90
19435;DHT22;9853;50.848;4.108;2022-07-29T03:34:37;16.70;99.90
19435;DHT22;9853;50.848;4.108;2022-07-29T03:36:38;16.60;99.90
19435;DHT22;9853;50.848;4.108;2022-07-29T03:38:40;16.60;99.90
19435;DHT22;9853;50.848;4.108;2022-07-29T03:40:44;16.60;99.90
19435;DHT22;9853;50.848;4.108;2022-07-29T03:42:47;16.60;99.90
19435;DHT22;9853;50.848;4.108;2022-07-29T03:44:50;16.70;99.90
19435;DHT22;9853;50.848;4.108;2022-07-29T03:46:54;16.70;99.90
19435;DHT22;9853;50.848;4.108;2022-07-29T03:48:59;16.60;99.90
19435;DHT22;9853;50.848;4.108;2022-07-29T03:51:00;16.50;99.90
19435;DHT22;9853;50.848;4.108;2022-07-29T03:53:02;16.60;99.90
19435;DHT22;9853;50.848;4.108;2022-07-29T03:55:03;16.60;99.90
19435;DHT22;9853;50.848;4.108;2022-07-29T03:57:05;16.50;99.90
19435;DHT22;9853;50.848;4.108;2022-07-29T03:59:08;16.40;99.90
19435;DHT22;9853;50.848;4.108;2022-07-29T04:01:09;16.30;99.90
19435;DHT22;9853;50.848;4.108;2022-07-29T04:03:10;16.50;99.90
19435;DHT22;9853;50.848;4.108;2022-07-29T04:05:13;16.50;99.90
19435;DHT22;9853;50.848;4.108;2022-07-29T04:07:14;16.50;99.90
19435;DHT22;9853;50.848;4.108;2022-07-29T04:09:15;16.30;99.90
19435;DHT22;9853;50.848;4.108;2022-07-29T04:11:16;16.30;99.90
19435;DHT22;9853;50.848;4.108;2022-07-29T04:13:17;16.20;99.90
19435;DHT22;9853;50.848;4.108;2022-07-29T04:15:18;16.30;99.90
19435;DHT22;9853;50.848;4.108;2022-07-29T04:17:19;16.30;99.90
19435;DHT22;9853;50.848;4.108;2022-07-29T04:19:19;16.30;99.90
19435;DHT22;9853;50.848;4.108;2022-07-29T04:21:20;16.30;99.90
19435;DHT22;9853;50.848;4.108;2022-07-29T04:23:21;16.20;99.90
19435;DHT22;9853;50.848;4.108;2022-07-29T04:25:22;16.40;99.90
19435;DHT22;9853;50.848;4.108;2022-07-29T04:27:22;16.30;99.90
19435;DHT22;9853;50.848;4.108;2022-07-29T04:29:23;16.20;99.90
19435;DHT22;9853;50.848;4.108;2022-07-29T04:31:24;16.30;99.90
19435;DHT22;9853;50.848;4.108;2022-07-29T04:33:25;16.20;99.90
19435;DHT22;9853;50.848;4.108;2022-07-29T04:35:27;16.30;99.90
19435;DHT22;9853;50.848;4.108;2022-07-29T04:37:28;16.30;99.90
19435;DHT22;9853;50.848;4.108;2022-07-29T04:39:28;16.30;99.90
19435;DHT22;9853;50.848;4.108;2022-07-29T04:41:29;16.30;99.90
19435;DHT22;9853;50.848;4.108;2022-07-29T04:43:30;16.40;99.90
19435;DHT22;9853;50.848;4.108;2022-07-29T04:45:30;16.40;99.90
19435;DHT22;9853;50.848;4.108;2022-07-29T04:47:31;16.40;99.90
19435;DHT22;9853;50.848;4.108;2022-07-29T04:49:32;16.50;99.90
19435;DHT22;9853;50.848;4.108;2022-07-29T04:51:33;16.50;99.90
19435;DHT22;9853;50.848;4.108;2022-07-29T04:53:33;16.60;99.90
19435;DHT22;9853;50.848;4.108;2022-07-29T04:55:34;16.60;99.90
19435;DHT22;9853;50.848;4.108;2022-07-29T04:57:35;16.60;99.90
19435;DHT22;9853;50.848;4.108;2022-07-29T04:59:35;16.80;99.90
19435;DHT22;9853;50.848;4.108;2022-07-29T05:01:36;16.80;99.90
19435;DHT22;9853;50.848;4.108;2022-07-29T05:03:37;16.90;99.90
19435;DHT22;9853;50.848;4.108;2022-07-29T05:05:38;17.00;99.90
19435;DHT22;9853;50.848;4.108;2022-07-29T05:07:38;17.10;99.90
19435;DHT22;9853;50.848;4.108;2022-07-29T05:09:39;17.20;99.90
19435;DHT22;9853;50.848;4.108;2022-07-29T05:11:40;17.30;99.90
19435;DHT22;9853;50.848;4.108;2022-07-29T05:13:41;17.30;99.90
19435;DHT22;9853;50.848;4.108;2022-07-29T05:15:41;17.40;99.90
19435;DHT22;9853;50.848;4.108;2022-07-29T05:17:42;17.40;99.90
19435;DHT22;9853;50.848;4.108;2022-07-29T05:19:43;17.50;99.90
19435;DHT22;9853;50.848;4.108;2022-07-29T05:21:46;17.60;99.90
19435;DHT22;9853;50.848;4.108;2022-07-29T05:23:47;17.70;99.90
19435;DHT22;9853;50.848;4.108;2022-07-29T05:25:47;17.70;99.90
19435;DHT22;9853;50.848;4.108;2022-07-29T05:27:48;17.80;99.90
19435;DHT22;9853;50.848;4.108;2022-07-29T05:29:49;17.80;99.90
19435;DHT22;9853;50.848;4.108;2022-07-29T05:31:50;17.70;99.90
19435;DHT22;9853;50.848;4.108;2022-07-29T05:33:52;17.80;99.90
19435;DHT22;9853;50.848;4.108;2022-07-29T05:35:52;17.90;99.90
19435;DHT22;9853;50.848;4.108;2022-07-29T05:37:53;17.90;99.90
19435;DHT22;9853;50.848;4.108;2022-07-29T05:39:54;17.90;99.90
19435;DHT22;9853;50.848;4.108;2022-07-29T05:41:55;17.90;99.90
19435;DHT22;9853;50.848;4.108;2022-07-29T05:43:56;18.00;99.90
19435;DHT22;9853;50.848;4.108;2022-07-29T05:45:56;18.30;99.90
19435;DHT22;9853;50.848;4.108;2022-07-29T05:47:57;18.60;99.90
19435;DHT22;9853;50.848;4.108;2022-07-29T05:49:58;18.40;99.90
19435;DHT22;9853;50.848;4.108;2022-07-29T05:51:59;18.50;99.90
19435;DHT22;9853;50.848;4.108;2022-07-29T05:53:59;18.50;99.90
19435;DHT22;9853;50.848;4.108;2022-07-29T05:56:03;18.40;99.90
19435;DHT22;9853;50.848;4.108;2022-07-29T05:58:05;18.70;99.90
19435;DHT22;9853;50.848;4.108;2022-07-29T06:00:06;18.30;99.90
19435;DHT22;9853;50.848;4.108;2022-07-29T06:02:13;18.20;99.90
19435;DHT22;9853;50.848;4.108;2022-07-29T06:04:13;18.10;99.90
19435;DHT22;9853;50.848;4.108;2022-07-29T06:06:14;18.00;99.90
19435;DHT22;9853;50.848;4.108;2022-07-29T06:08:15;18.30;99.90
19435;DHT22;9853;50.848;4.108;2022-07-29T06:10:16;18.70;99.90
19435;DHT22;9853;50.848;4.108;2022-07-29T06:12:16;18.90;99.90
19435;DHT22;9853;50.848;4.108;2022-07-29T06:14:17;19.00;99.90
19435;DHT22;9853;50.848;4.108;2022-07-29T06:16:18;19.00;99.90
19435;DHT22;9853;50.848;4.108;2022-07-29T06:18:18;18.90;99.90
19435;DHT22;9853;50.848;4.108;2022-07-29T06:20:21;18.90;99.90
19435;DHT22;9853;50.848;4.108;2022-07-29T06:22:22;18.80;99.90
19435;DHT22;9853;50.848;4.108;2022-07-29T06:24:23;18.70;99.90
19435;DHT22;9853;50.848;4.108;2022-07-29T06:26:23;18.70;99.90
19435;DHT22;9853;50.848;4.108;2022-07-29T06:28:24;18.70;99.90
19435;DHT22;9853;50.848;4.108;2022-07-29T06:30:25;18.60;99.90
19435;DHT22;9853;50.848;4.108;2022-07-29T06:32:26;18.70;99.90
19435;DHT22;9853;50.848;4.108;2022-07-29T06:34:26;18.70;99.90
19435;DHT22;9853;50.848;4.108;2022-07-29T06:36:27;18.80;99.90
19435;DHT22;9853;50.848;4.108;2022-07-29T06:38:28;19.00;99.90
19435;DHT22;9853;50.848;4.108;2022-07-29T06:40:28;19.20;99.90
19435;DHT22;9853;50.848;4.108;2022-07-29T06:42:48;19.10;99.90
19435;DHT22;9853;50.848;4.108;2022-07-29T06:44:48;19.40;99.90
19435;DHT22;9853;50.848;4.108;2022-07-29T06:46:49;19.70;99.90
19435;DHT22;9853;50.848;4.108;2022-07-29T06:48:51;19.90;99.90
19435;DHT22;9853;50.848;4.108;2022-07-29T06:50:52;20.00;99.90
19435;DHT22;9853;50.848;4.108;2022-07-29T06:52:53;19.90;99.90
19435;DHT22;9853;50.848;4.108;2022-07-29T06:54:54;20.30;99.90
19435;DHT22;9853;50.848;4.108;2022-07-29T06:56:55;20.50;99.90
19435;DHT22;9853;50.848;4.108;2022-07-29T06:58:56;20.50;99.90
19435;DHT22;9853;50.848;4.108;2022-07-29T07:00:58;20.50;99.90
19435;DHT22;9853;50.848;4.108;2022-07-29T07:02:59;20.60;99.90
19435;DHT22;9853;50.848;4.108;2022-07-29T07:04:59;20.80;99.90
19435;DHT22;9853;50.848;4.108;2022-07-29T07:07:00;20.90;99.90
19435;DHT22;9853;50.848;4.108;2022-07-29T07:09:01;21.00;99.90
19435;DHT22;9853;50.848;4.108;2022-07-29T07:11:02;20.90;99.90
19435;DHT22;9853;50.848;4.108;2022-07-29T07:13:04;20.80;99.90
19435;DHT22;9853;50.848;4.108;2022-07-29T07:15:06;20.60;99.90
19435;DHT22;9853;50.848;4.108;2022-07-29T07:17:06;20.70;99.90
19435;DHT22;9853;50.848;4.108;2022-07-29T07:19:08;20.90;99.90
19435;DHT22;9853;50.848;4.108;2022-07-29T07:21:08;21.00;99.90
19435;DHT22;9853;50.848;4.108;2022-07-29T07:23:09;21.20;99.90
19435;DHT22;9853;50.848;4.108;2022-07-29T07:25:11;21.40;99.90
19435;DHT22;9853;50.848;4.108;2022-07-29T07:27:11;21.20;99.90
19435;DHT22;9853;50.848;4.108;2022-07-29T07:29:12;21.30;99.90
19435;DHT22;9853;50.848;4.108;2022-07-29T07:31:13;21.60;99.90
19435;DHT22;9853;50.848;4.108;2022-07-29T07:33:14;21.70;99.90
19435;DHT22;9853;50.848;4.108;2022-07-29T07:35:15;21.70;99.90
19435;DHT22;9853;50.848;4.108;2022-07-29T07:37:16;21.90;99.90
19435;DHT22;9853;50.848;4.108;2022-07-29T07:39:17;22.20;99.90
19435;DHT22;9853;50.848;4.108;2022-07-29T07:41:18;22.30;99.90
19435;DHT22;9853;50.848;4.108;2022-07-29T07:43:19;22.60;99.90
19435;DHT22;9853;50.848;4.108;2022-07-29T07:45:19;22.60;99.90
19435;DHT22;9853;50.848;4.108;2022-07-29T07:47:20;23.70;99.90
19435;DHT22;9853;50.848;4.108;2022-07-29T07:49:21;23.80;99.90
19435;DHT22;9853;50.848;4.108;2022-07-29T07:51:21;23.30;99.90
19435;DHT22;9853;50.848;4.108;2022-07-29T07:53:22;23.60;99.90
19435;DHT22;9853;50.848;4.108;2022-07-29T07:55:24;23.10;99.90
19435;DHT22;9853;50.848;4.108;2022-07-29T07:57:24;23.30;99.90
19435;DHT22;9853;50.848;4.108;2022-07-29T07:59:25;23.20;99.90
19435;DHT22;9853;50.848;4.108;2022-07-29T08:01:26;23.70;99.90
19435;DHT22;9853;50.848;4.108;2022-07-29T08:03:27;25.20;99.90
19435;DHT22;9853;50.848;4.108;2022-07-29T08:05:28;26.90;99.90
19435;DHT22;9853;50.848;4.108;2022-07-29T08:07:28;27.00;99.90
19435;DHT22;9853;50.848;4.108;2022-07-29T08:09:29;27.50;99.90
19435;DHT22;9853;50.848;4.108;2022-07-29T08:11:30;28.60;99.90
19435;DHT22;9853;50.848;4.108;2022-07-29T08:13:31;29.70;99.90
19435;DHT22;9853;50.848;4.108;2022-07-29T08:15:32;30.00;99.90
19435;DHT22;9853;50.848;4.108;2022-07-29T08:17:33;29.80;99.90
19435;DHT22;9853;50.848;4.108;2022-07-29T08:19:34;29.90;99.90
19435;DHT22;9853;50.848;4.108;2022-07-29T08:21:35;30.60;99.90
19435;DHT22;9853;50.848;4.108;2022-07-29T08:23:35;30.20;99.90
19435;DHT22;9853;50.848;4.108;2022-07-29T08:25:39;30.30;99.90
19435;DHT22;9853;50.848;4.108;2022-07-29T08:27:40;29.50;99.90
19435;DHT22;9853;50.848;4.108;2022-07-29T08:29:41;28.50;99.90
19435;DHT22;9853;50.848;4.108;2022-07-29T08:31:41;27.60;99.90
19435;DHT22;9853;50.848;4.108;2022-07-29T08:33:42;28.30;99.90
19435;DHT22;9853;50.848;4.108;2022-07-29T08:35:43;29.50;99.90
19435;DHT22;9853;50.848;4.108;2022-07-29T08:37:44;30.50;99.90
19435;DHT22;9853;50.848;4.108;2022-07-29T08:39:45;30.20;99.90
19435;DHT22;9853;50.848;4.108;2022-07-29T08:41:46;28.90;99.90
19435;DHT22;9853;50.848;4.108;2022-07-29T08:43:48;29.50;99.90
19435;DHT22;9853;50.848;4.108;2022-07-29T08:45:50;29.80;99.90
19435;DHT22;9853;50.848;4.108;2022-07-29T08:47:52;29.90;99.90
19435;DHT22;9853;50.848;4.108;2022-07-29T08:49:53;30.20;99.90
19435;DHT22;9853;50.848;4.108;2022-07-29T08:51:54;30.50;99.90
19435;DHT22;9853;50.848;4.108;2022-07-29T08:53:55;30.70;99.90
19435;DHT22;9853;50.848;4.108;2022-07-29T08:55:57;30.60;99.90
19435;DHT22;9853;50.848;4.108;2022-07-29T08:57:58;30.40;99.90
19435;DHT22;9853;50.848;4.108;2022-07-29T09:00:02;29.80;99.90
19435;DHT22;9853;50.848;4.108;2022-07-29T09:02:04;30.20;99.90
19435;DHT22;9853;50.848;4.108;2022-07-29T09:04:10;30.70;99.90
19435;DHT22;9853;50.848;4.108;2022-07-29T09:06:17;31.40;99.90
19435;DHT22;9853;50.848;4.108;2022-07-29T09:08:18;32.10;99.90
19435;DHT22;9853;50.848;4.108;2022-07-29T09:10:20;31.60;99.90
19435;DHT22;9853;50.848;4.108;2022-07-29T09:12:21;31.80;99.90
19435;DHT22;9853;50.848;4.108;2022-07-29T09:14:22;30.90;99.90
19435;DHT22;9853;50.848;4.108;2022-07-29T09:16:23;30.60;99.90
19435;DHT22;9853;50.848;4.108;2022-07-29T09:18:40;30.10;99.90
19435;DHT22;9853;50.848;4.108;2022-07-29T09:20:51;30.30;99.90
19435;DHT22;9853;50.848;4.108;2022-07-29T09:23:12;30.20;99.90
19435;DHT22;9853;50.848;4.108;2022-07-29T09:25:13;29.80;99.90
19435;DHT22;9853;50.848;4.108;2022-07-29T09:29:23;31.00;99.90
19435;DHT22;9853;50.848;4.108;2022-07-29T09:31:48;29.70;99.90
19435;DHT22;9853;50.848;4.108;2022-07-29T09:33:50;28.40;99.90
19435;DHT22;9853;50.848;4.108;2022-07-29T09:36:18;28.50;99.90
19435;DHT22;9853;50.848;4.108;2022-07-29T09:38:19;29.80;99.90
19435;DHT22;9853;50.848;4.108;2022-07-29T09:40:21;29.50;99.90
19435;DHT22;9853;50.848;4.108;2022-07-29T09:42:29;29.50;99.90
19435;DHT22;9853;50.848;4.108;2022-07-29T09:44:48;30.00;99.90
19435;DHT22;9853;50.848;4.108;2022-07-29T09:47:04;30.30;99.90
19435;DHT22;9853;50.848;4.108;2022-07-29T09:49:09;30.90;99.90
19435;DHT22;9853;50.848;4.108;2022-07-29T09:51:20;31.50;99.90
19435;DHT22;9853;50.848;4.108;2022-07-29T09:53:35;31.50;99.90
19435;DHT22;9853;50.848;4.108;2022-07-29T09:55:51;31.60;99.90
19435;DHT22;9853;50.848;4.108;2022-07-29T09:57:52;30.00;99.90
19435;DHT22;9853;50.848;4.108;2022-07-29T10:00:04;29.60;99.90
19435;DHT22;9853;50.848;4.108;2022-07-29T10:02:13;29.00;99.90
19435;DHT22;9853;50.848;4.108;2022-07-29T10:04:14;28.60;99.90
19435;DHT22;9853;50.848;4.108;2022-07-29T10:06:15;28.30;99.90
19435;DHT22;9853;50.848;4.108;2022-07-29T10:08:25;27.80;99.90
19435;DHT22;9853;50.848;4.108;2022-07-29T10:10:31;27.40;99.90
19435;DHT22;9853;50.848;4.108;2022-07-29T10:12:32;27.60;99.90
19435;DHT22;9853;50.848;4.108;2022-07-29T10:14:33;28.00;99.90
19435;DHT22;9853;50.848;4.108;2022-07-29T10:16:34;28.20;99.90
19435;DHT22;9853;50.848;4.108;2022-07-29T10:18:38;28.40;99.90
19435;DHT22;9853;50.848;4.108;2022-07-29T10:20:40;28.40;99.90
19435;DHT22;9853;50.848;4.108;2022-07-29T10:22:41;28.60;99.90
19435;DHT22;9853;50.848;4.108;2022-07-29T10:24:41;28.90;99.90
19435;DHT22;9853;50.848;4.108;2022-07-29T10:26:42;29.60;99.90
19435;DHT22;9853;50.848;4.108;2022-07-29T10:28:46;28.80;99.90
19435;DHT22;9853;50.848;4.108;2022-07-29T10:30:49;28.70;99.90
19435;DHT22;9853;50.848;4.108;2022-07-29T10:33:09;27.70;99.90
19435;DHT22;9853;50.848;4.108;2022-07-29T10:42:59;27.10;99.90
19435;DHT22;9853;50.848;4.108;2022-07-29T10:45:03;26.60;99.90
19435;DHT22;9853;50.848;4.108;2022-07-29T10:47:04;26.50;99.90
19435;DHT22;9853;50.848;4.108;2022-07-29T10:51:10;26.50;99.90
19435;DHT22;9853;50.848;4.108;2022-07-29T10:53:11;26.50;99.90
19435;DHT22;9853;50.848;4.108;2022-07-29T10:55:31;26.30;99.90
19435;DHT22;9853;50.848;4.108;2022-07-29T10:57:34;26.40;99.90
19435;DHT22;9853;50.848;4.108;2022-07-29T10:59:37;26.20;99.90
19435;DHT22;9853;50.848;4.108;2022-07-29T11:01:38;26.30;99.90
19435;DHT22;9853;50.848;4.108;2022-07-29T11:03:47;26.60;99.90
19435;DHT22;9853;50.848;4.108;2022-07-29T11:05:52;26.70;99.90
19435;DHT22;9853;50.848;4.108;2022-07-29T11:14:58;26.20;99.90
19435;DHT22;9853;50.848;4.108;2022-07-29T11:17:05;26.10;99.90
19435;DHT22;9853;50.848;4.108;2022-07-29T11:21:37;26.30;99.90
19435;DHT22;9853;50.848;4.108;2022-07-29T11:23:38;26.40;99.90
19435;DHT22;9853;50.848;4.108;2022-07-29T11:25:40;26.30;99.90
19435;DHT22;9853;50.848;4.108;2022-07-29T11:27:41;26.30;99.90
19435;DHT22;9853;50.848;4.108;2022-07-29T11:29:52;26.40;99.90
19435;DHT22;9853;50.848;4.108;2022-07-29T11:32:12;26.60;99.90
19435;DHT22;9853;50.848;4.108;2022-07-29T11:36:21;26.40;99.90
19435;DHT22;9853;50.848;4.108;2022-07-29T11:38:23;26.80;99.90
19435;DHT22;9853;50.848;4.108;2022-07-29T11:40:25;26.80;99.90
19435;DHT22;9853;50.848;4.108;2022-07-29T11:44:56;27.40;99.90
19435;DHT22;9853;50.848;4.108;2022-07-29T11:46:57;27.50;99.90
19435;DHT22;9853;50.848;4.108;2022-07-29T11:48:59;27.40;99.90
19435;DHT22;9853;50.848;4.108;2022-07-29T11:51:09;27.20;99.90
19435;DHT22;9853;50.848;4.108;2022-07-29T11:53:12;27.20;99.90
19435;DHT22;9853;50.848;4.108;2022-07-29T11:55:16;27.10;99.90
19435;DHT22;9853;50.848;4.108;2022-07-29T11:57:18;26.70;99.90
19435;DHT22;9853;50.848;4.108;2022-07-29T11:59:20;26.60;99.90
19435;DHT22;9853;50.848;4.108;2022-07-29T12:01:21;26.50;99.90
19435;DHT22;9853;50.848;4.108;2022-07-29T12:03:28;26.50;99.90
19435;DHT22;9853;50.848;4.108;2022-07-29T12:05:41;26.80;99.90
19435;DHT22;9853;50.848;4.108;2022-07-29T12:07:42;27.10;99.90
19435;DHT22;9853;50.848;4.108;2022-07-29T12:09:50;27.50;99.90
19435;DHT22;9853;50.848;4.108;2022-07-29T12:11:58;27.50;99.90
19435;DHT22;9853;50.848;4.108;2022-07-29T12:13:59;27.10;99.90
19435;DHT22;9853;50.848;4.108;2022-07-29T12:16:00;27.10;99.90
19435;DHT22;9853;50.848;4.108;2022-07-29T12:18:10;27.30;99.90
19435;DHT22;9853;50.848;4.108;2022-07-29T12:20:10;27.30;99.90
19435;DHT22;9853;50.848;4.108;2022-07-29T12:22:27;27.10;99.90
19435;DHT22;9853;50.848;4.108;2022-07-29T12:24:45;27.00;99.90
19435;DHT22;9853;50.848;4.108;2022-07-29T12:28:51;26.80;99.90
19435;DHT22;9853;50.848;4.108;2022-07-29T12:30:52;26.90;99.90
19435;DHT22;9853;50.848;4.108;2022-07-29T12:32:53;27.20;99.90
19435;DHT22;9853;50.848;4.108;2022-07-29T12:34:53;27.50;99.90
19435;DHT22;9853;50.848;4.108;2022-07-29T12:36:54;27.60;99.90
19435;DHT22;9853;50.848;4.108;2022-07-29T12:38:56;27.60;99.90
19435;DHT22;9853;50.848;4.108;2022-07-29T12:40:57;27.60;99.90
19435;DHT22;9853;50.848;4.108;2022-07-29T12:43:14;27.50;99.90
19435;DHT22;9853;50.848;4.108;2022-07-29T12:45:15;27.60;99.90
19435;DHT22;9853;50.848;4.108;2022-07-29T12:47:18;27.20;99.90
19435;DHT22;9853;50.848;4.108;2022-07-29T12:49:22;27.30;99.90
19435;DHT22;9853;50.848;4.108;2022-07-29T12:51:30;27.50;99.90
19435;DHT22;9853;50.848;4.108;2022-07-29T12:53:32;27.60;99.90
19435;DHT22;9853;50.848;4.108;2022-07-29T12:55:44;27.50;99.90
19435;DHT22;9853;50.848;4.108;2022-07-29T12:57:50;27.50;99.90
19435;DHT22;9853;50.848;4.108;2022-07-29T13:00:08;27.90;99.90
19435;DHT22;9853;50.848;4.108;2022-07-29T13:02:22;28.20;99.90
19435;DHT22;9853;50.848;4.108;2022-07-29T13:04:27;28.60;99.90
19435;DHT22;9853;50.848;4.108;2022-07-29T13:06:45;28.60;99.90
19435;DHT22;9853;50.848;4.108;2022-07-29T13:09:10;28.90;99.90
19435;DHT22;9853;50.848;4.108;2022-07-29T13:11:49;29.10;99.90
19435;DHT22;9853;50.848;4.108;2022-07-29T13:13:51;28.70;99.90
19435;DHT22;9853;50.848;4.108;2022-07-29T13:16:06;28.20;99.90
19435;DHT22;9853;50.848;4.108;2022-07-29T13:18:29;28.00;99.90
19435;DHT22;9853;50.848;4.108;2022-07-29T13:20:30;28.50;99.90
19435;DHT22;9853;50.848;4.108;2022-07-29T13:22:31;28.60;99.90
19435;DHT22;9853;50.848;4.108;2022-07-29T13:24:32;28.00;99.90
19435;DHT22;9853;50.848;4.108;2022-07-29T13:26:33;27.70;99.90
19435;DHT22;9853;50.848;4.108;2022-07-29T13:28:37;27.90;99.90
19435;DHT22;9853;50.848;4.108;2022-07-29T13:30:40;28.20;99.90
19435;DHT22;9853;50.848;4.108;2022-07-29T13:32:41;28.40;99.90
19435;DHT22;9853;50.848;4.108;2022-07-29T13:34:42;28.50;99.90
19435;DHT22;9853;50.848;4.108;2022-07-29T13:36:42;28.00;99.90
19435;DHT22;9853;50.848;4.108;2022-07-29T13:38:43;27.70;99.90
19435;DHT22;9853;50.848;4.108;2022-07-29T13:40:44;27.30;99.90
19435;DHT22;9853;50.848;4.108;2022-07-29T13:42:45;27.50;99.90
19435;DHT22;9853;50.848;4.108;2022-07-29T13:44:46;27.80;99.90
19435;DHT22;9853;50.848;4.108;2022-07-29T13:46:48;28.30;99.90